Terminal Aerodrome Forecast
Issued by NWS Grand Forks, ND

Home | Current Version | Previous Version | Graphics & Text | Print | Product List | Glossary On
Versions: 1 2 3 4 5 6 7 8 9 10 11 12 13 14 15 16 17 18
000
FTUS43 KFGF 240250 AAA
TAFGFK
TAF AMD
KGFK 240250Z 2403/2424 35013KT P6SM SCT050
     FM241400 35018G28KT P6SM SCT050
     FM242000 33016G25KT P6SM FEW200
     FM242300 28011KT P6SM SCT150=

USA.gov is the U.S. government's official web portal to all federal, state and local government web resources and services.